sensor_id;sensor_type;location;lat;lon;timestamp;P1;durP1;ratioP1;P2;durP2;ratioP2
43048;SDS011;28673;44.412;11.918;2023-12-22T00:01:29;37.95;;;20.67;;
43048;SDS011;28673;44.412;11.918;2023-12-22T00:03:55;36.97;;;19.58;;
43048;SDS011;28673;44.412;11.918;2023-12-22T00:06:21;39.58;;;20.67;;
43048;SDS011;28673;44.412;11.918;2023-12-22T00:08:47;38.85;;;21.15;;
43048;SDS011;28673;44.412;11.918;2023-12-22T00:11:13;36.35;;;18.80;;
43048;SDS011;28673;44.412;11.918;2023-12-22T00:13:39;38.22;;;18.60;;
43048;SDS011;28673;44.412;11.918;2023-12-22T00:16:05;36.55;;;19.00;;
43048;SDS011;28673;44.412;11.918;2023-12-22T00:18:31;36.05;;;18.23;;
43048;SDS011;28673;44.412;11.918;2023-12-22T00:20:56;38.25;;;18.30;;
43048;SDS011;28673;44.412;11.918;2023-12-22T00:23:22;40.35;;;19.13;;
43048;SDS011;28673;44.412;11.918;2023-12-22T00:25:48;40.58;;;18.40;;
43048;SDS011;28673;44.412;11.918;2023-12-22T00:28:14;39.00;;;17.92;;
43048;SDS011;28673;44.412;11.918;2023-12-22T00:30:40;33.08;;;17.35;;
43048;SDS011;28673;44.412;11.918;2023-12-22T00:33:06;33.90;;;17.02;;
43048;SDS011;28673;44.412;11.918;2023-12-22T00:35:32;30.63;;;15.98;;
43048;SDS011;28673;44.412;11.918;2023-12-22T00:37:58;36.58;;;15.35;;
43048;SDS011;28673;44.412;11.918;2023-12-22T00:40:24;34.50;;;14.07;;
43048;SDS011;28673;44.412;11.918;2023-12-22T00:42:49;24.27;;;13.23;;
43048;SDS011;28673;44.412;11.918;2023-12-22T00:45:15;24.75;;;13.77;;
43048;SDS011;28673;44.412;11.918;2023-12-22T00:47:41;26.15;;;13.02;;
43048;SDS011;28673;44.412;11.918;2023-12-22T00:50:07;31.83;;;13.07;;
43048;SDS011;28673;44.412;11.918;2023-12-22T00:52:33;26.67;;;13.15;;
43048;SDS011;28673;44.412;11.918;2023-12-22T00:54:59;32.70;;;12.20;;
43048;SDS011;28673;44.412;11.918;2023-12-22T00:57:25;30.45;;;12.32;;
43048;SDS011;28673;44.412;11.918;2023-12-22T00:59:50;21.08;;;11.23;;
43048;SDS011;28673;44.412;11.918;2023-12-22T01:02:17;23.33;;;12.57;;
43048;SDS011;28673;44.412;11.918;2023-12-22T01:04:43;27.27;;;12.30;;
43048;SDS011;28673;44.412;11.918;2023-12-22T01:07:10;27.60;;;12.80;;
43048;SDS011;28673;44.412;11.918;2023-12-22T01:09:36;18.10;;;10.15;;
43048;SDS011;28673;44.412;11.918;2023-12-22T01:12:03;24.33;;;11.85;;
43048;SDS011;28673;44.412;11.918;2023-12-22T01:14:30;30.63;;;13.05;;
43048;SDS011;28673;44.412;11.918;2023-12-22T01:16:56;20.90;;;11.18;;
43048;SDS011;28673;44.412;11.918;2023-12-22T01:19:22;21.30;;;11.20;;
43048;SDS011;28673;44.412;11.918;2023-12-22T01:21:47;23.17;;;11.70;;
43048;SDS011;28673;44.412;11.918;2023-12-22T01:24:14;17.92;;;10.90;;
43048;SDS011;28673;44.412;11.918;2023-12-22T01:26:40;23.15;;;11.60;;
43048;SDS011;28673;44.412;11.918;2023-12-22T01:29:07;24.38;;;12.13;;
43048;SDS011;28673;44.412;11.918;2023-12-22T01:31:33;22.30;;;11.93;;
43048;SDS011;28673;44.412;11.918;2023-12-22T01:33:59;21.80;;;10.15;;
43048;SDS011;28673;44.412;11.918;2023-12-22T01:36:25;21.48;;;10.88;;
43048;SDS011;28673;44.412;11.918;2023-12-22T01:38:51;19.85;;;10.38;;
43048;SDS011;28673;44.412;11.918;2023-12-22T01:41:17;20.77;;;10.95;;
43048;SDS011;28673;44.412;11.918;2023-12-22T01:43:43;22.98;;;11.85;;
43048;SDS011;28673;44.412;11.918;2023-12-22T01:46:09;20.55;;;11.90;;
43048;SDS011;28673;44.412;11.918;2023-12-22T01:48:36;28.55;;;12.20;;
43048;SDS011;28673;44.412;11.918;2023-12-22T01:51:02;16.48;;;10.23;;
43048;SDS011;28673;44.412;11.918;2023-12-22T01:53:29;24.35;;;11.45;;
43048;SDS011;28673;44.412;11.918;2023-12-22T01:55:57;22.42;;;11.27;;
43048;SDS011;28673;44.412;11.918;2023-12-22T01:58:25;26.52;;;11.73;;
43048;SDS011;28673;44.412;11.918;2023-12-22T02:00:52;23.02;;;11.20;;
43048;SDS011;28673;44.412;11.918;2023-12-22T02:03:19;24.90;;;11.73;;
43048;SDS011;28673;44.412;11.918;2023-12-22T02:05:45;18.08;;;10.05;;
43048;SDS011;28673;44.412;11.918;2023-12-22T02:08:11;21.42;;;11.55;;
43048;SDS011;28673;44.412;11.918;2023-12-22T02:10:37;22.20;;;10.68;;
43048;SDS011;28673;44.412;11.918;2023-12-22T02:13:04;29.52;;;10.70;;
43048;SDS011;28673;44.412;11.918;2023-12-22T02:15:31;21.95;;;10.80;;
43048;SDS011;28673;44.412;11.918;2023-12-22T02:18:00;23.45;;;11.93;;
43048;SDS011;28673;44.412;11.918;2023-12-22T02:20:32;20.38;;;9.77;;
43048;SDS011;28673;44.412;11.918;2023-12-22T02:22:58;19.67;;;10.55;;
43048;SDS011;28673;44.412;11.918;2023-12-22T02:25:24;21.02;;;10.80;;
43048;SDS011;28673;44.412;11.918;2023-12-22T02:27:50;23.10;;;11.13;;
43048;SDS011;28673;44.412;11.918;2023-12-22T02:30:39;19.30;;;10.88;;
43048;SDS011;28673;44.412;11.918;2023-12-22T02:33:17;19.42;;;10.50;;
43048;SDS011;28673;44.412;11.918;2023-12-22T02:35:46;18.98;;;10.38;;
43048;SDS011;28673;44.412;11.918;2023-12-22T02:38:14;21.60;;;11.38;;
43048;SDS011;28673;44.412;11.918;2023-12-22T02:40:41;22.55;;;10.65;;
43048;SDS011;28673;44.412;11.918;2023-12-22T02:43:07;18.13;;;9.88;;
43048;SDS011;28673;44.412;11.918;2023-12-22T02:45:34;18.77;;;10.50;;
43048;SDS011;28673;44.412;11.918;2023-12-22T02:48:00;22.67;;;10.35;;
43048;SDS011;28673;44.412;11.918;2023-12-22T02:50:26;25.60;;;12.68;;
43048;SDS011;28673;44.412;11.918;2023-12-22T02:52:51;23.17;;;11.77;;
43048;SDS011;28673;44.412;11.918;2023-12-22T02:55:17;20.60;;;12.07;;
43048;SDS011;28673;44.412;11.918;2023-12-22T02:57:43;21.63;;;12.85;;
43048;SDS011;28673;44.412;11.918;2023-12-22T03:00:09;26.95;;;11.48;;
43048;SDS011;28673;44.412;11.918;2023-12-22T03:02:35;20.23;;;11.55;;
43048;SDS011;28673;44.412;11.918;2023-12-22T03:05:01;30.00;;;12.55;;
43048;SDS011;28673;44.412;11.918;2023-12-22T03:07:27;22.33;;;11.68;;
43048;SDS011;28673;44.412;11.918;2023-12-22T03:09:52;24.60;;;12.60;;
43048;SDS011;28673;44.412;11.918;2023-12-22T03:12:18;22.20;;;11.77;;
43048;SDS011;28673;44.412;11.918;2023-12-22T03:14:44;34.67;;;13.13;;
43048;SDS011;28673;44.412;11.918;2023-12-22T03:17:10;24.65;;;12.38;;
43048;SDS011;28673;44.412;11.918;2023-12-22T03:19:36;26.58;;;12.68;;
43048;SDS011;28673;44.412;11.918;2023-12-22T03:22:02;24.45;;;11.43;;
43048;SDS011;28673;44.412;11.918;2023-12-22T03:24:28;22.80;;;11.65;;
43048;SDS011;28673;44.412;11.918;2023-12-22T03:26:54;26.85;;;12.23;;
43048;SDS011;28673;44.412;11.918;2023-12-22T03:29:20;38.72;;;12.75;;
43048;SDS011;28673;44.412;11.918;2023-12-22T03:31:46;27.27;;;13.60;;
43048;SDS011;28673;44.412;11.918;2023-12-22T03:34:12;29.10;;;12.50;;
43048;SDS011;28673;44.412;11.918;2023-12-22T03:36:38;25.20;;;13.05;;
43048;SDS011;28673;44.412;11.918;2023-12-22T03:39:04;28.17;;;13.05;;
43048;SDS011;28673;44.412;11.918;2023-12-22T03:41:30;25.48;;;12.45;;
43048;SDS011;28673;44.412;11.918;2023-12-22T03:43:56;25.38;;;13.15;;
43048;SDS011;28673;44.412;11.918;2023-12-22T03:46:22;29.90;;;13.07;;
43048;SDS011;28673;44.412;11.918;2023-12-22T03:48:53;24.27;;;12.25;;
43048;SDS011;28673;44.412;11.918;2023-12-22T03:51:18;27.20;;;13.10;;
43048;SDS011;28673;44.412;11.918;2023-12-22T03:53:44;29.25;;;13.07;;
43048;SDS011;28673;44.412;11.918;2023-12-22T03:56:10;22.40;;;12.40;;
43048;SDS011;28673;44.412;11.918;2023-12-22T03:58:36;27.60;;;13.32;;
43048;SDS011;28673;44.412;11.918;2023-12-22T04:01:03;23.90;;;11.20;;
43048;SDS011;28673;44.412;11.918;2023-12-22T04:03:29;25.13;;;11.80;;
43048;SDS011;28673;44.412;11.918;2023-12-22T04:05:55;24.80;;;11.63;;
43048;SDS011;28673;44.412;11.918;2023-12-22T04:08:21;22.75;;;12.07;;
43048;SDS011;28673;44.412;11.918;2023-12-22T04:10:47;25.45;;;11.40;;
43048;SDS011;28673;44.412;11.918;2023-12-22T04:13:13;25.15;;;12.07;;
43048;SDS011;28673;44.412;11.918;2023-12-22T04:15:39;24.80;;;12.15;;
43048;SDS011;28673;44.412;11.918;2023-12-22T04:18:05;22.77;;;11.88;;
43048;SDS011;28673;44.412;11.918;2023-12-22T04:20:30;19.60;;;11.98;;
43048;SDS011;28673;44.412;11.918;2023-12-22T04:22:57;28.77;;;12.30;;
43048;SDS011;28673;44.412;11.918;2023-12-22T04:25:23;32.13;;;12.85;;
43048;SDS011;28673;44.412;11.918;2023-12-22T04:27:50;20.15;;;11.98;;
43048;SDS011;28673;44.412;11.918;2023-12-22T04:30:16;30.50;;;13.20;;
43048;SDS011;28673;44.412;11.918;2023-12-22T04:32:42;19.85;;;11.30;;
43048;SDS011;28673;44.412;11.918;2023-12-22T04:35:08;23.77;;;12.65;;
43048;SDS011;28673;44.412;11.918;2023-12-22T04:37:34;25.70;;;13.13;;
43048;SDS011;28673;44.412;11.918;2023-12-22T04:40:00;25.27;;;13.70;;
43048;SDS011;28673;44.412;11.918;2023-12-22T04:42:26;25.92;;;11.98;;
43048;SDS011;28673;44.412;11.918;2023-12-22T04:44:52;28.50;;;13.05;;
43048;SDS011;28673;44.412;11.918;2023-12-22T04:47:18;32.95;;;13.60;;
43048;SDS011;28673;44.412;11.918;2023-12-22T04:49:44;22.00;;;11.75;;
43048;SDS011;28673;44.412;11.918;2023-12-22T04:52:10;30.80;;;13.02;;
43048;SDS011;28673;44.412;11.918;2023-12-22T04:54:37;25.27;;;13.07;;
43048;SDS011;28673;44.412;11.918;2023-12-22T04:57:03;23.55;;;11.98;;
43048;SDS011;28673;44.412;11.918;2023-12-22T04:59:29;26.65;;;12.27;;
43048;SDS011;28673;44.412;11.918;2023-12-22T05:01:55;28.48;;;13.43;;
43048;SDS011;28673;44.412;11.918;2023-12-22T05:04:21;22.30;;;12.68;;
43048;SDS011;28673;44.412;11.918;2023-12-22T05:06:47;22.73;;;12.25;;
43048;SDS011;28673;44.412;11.918;2023-12-22T05:09:14;24.50;;;13.38;;
43048;SDS011;28673;44.412;11.918;2023-12-22T05:11:43;25.00;;;13.10;;
43048;SDS011;28673;44.412;11.918;2023-12-22T05:14:09;25.88;;;13.25;;
43048;SDS011;28673;44.412;11.918;2023-12-22T05:16:35;22.42;;;12.55;;
43048;SDS011;28673;44.412;11.918;2023-12-22T05:19:01;24.17;;;13.15;;
43048;SDS011;28673;44.412;11.918;2023-12-22T05:21:26;30.90;;;13.30;;
43048;SDS011;28673;44.412;11.918;2023-12-22T05:23:55;18.65;;;11.38;;
43048;SDS011;28673;44.412;11.918;2023-12-22T05:26:21;21.98;;;11.77;;
43048;SDS011;28673;44.412;11.918;2023-12-22T05:28:50;26.48;;;13.10;;
43048;SDS011;28673;44.412;11.918;2023-12-22T05:31:16;24.40;;;11.70;;
43048;SDS011;28673;44.412;11.918;2023-12-22T05:33:42;21.95;;;12.65;;
43048;SDS011;28673;44.412;11.918;2023-12-22T05:36:08;27.08;;;13.57;;
43048;SDS011;28673;44.412;11.918;2023-12-22T05:38:37;30.73;;;14.02;;
43048;SDS011;28673;44.412;11.918;2023-12-22T05:41:04;27.58;;;13.85;;
43048;SDS011;28673;44.412;11.918;2023-12-22T05:43:31;26.40;;;12.73;;
43048;SDS011;28673;44.412;11.918;2023-12-22T05:45:58;22.75;;;12.15;;
43048;SDS011;28673;44.412;11.918;2023-12-22T05:48:25;27.08;;;14.00;;
43048;SDS011;28673;44.412;11.918;2023-12-22T05:50:53;28.88;;;14.13;;
43048;SDS011;28673;44.412;11.918;2023-12-22T05:53:21;31.83;;;15.55;;
43048;SDS011;28673;44.412;11.918;2023-12-22T05:55:49;28.67;;;14.70;;
43048;SDS011;28673;44.412;11.918;2023-12-22T05:58:15;28.88;;;15.43;;
43048;SDS011;28673;44.412;11.918;2023-12-22T06:00:41;28.58;;;14.02;;
43048;SDS011;28673;44.412;11.918;2023-12-22T06:03:06;25.58;;;14.02;;
43048;SDS011;28673;44.412;11.918;2023-12-22T06:05:32;30.15;;;13.73;;
43048;SDS011;28673;44.412;11.918;2023-12-22T06:07:58;28.25;;;14.93;;
43048;SDS011;28673;44.412;11.918;2023-12-22T06:10:24;31.67;;;13.48;;
43048;SDS011;28673;44.412;11.918;2023-12-22T06:12:49;23.15;;;12.77;;
43048;SDS011;28673;44.412;11.918;2023-12-22T06:15:15;23.40;;;13.13;;
43048;SDS011;28673;44.412;11.918;2023-12-22T06:17:41;25.10;;;13.93;;
43048;SDS011;28673;44.412;11.918;2023-12-22T06:20:07;24.90;;;13.00;;
43048;SDS011;28673;44.412;11.918;2023-12-22T06:22:33;29.80;;;14.07;;
43048;SDS011;28673;44.412;11.918;2023-12-22T06:24:59;23.38;;;14.05;;
43048;SDS011;28673;44.412;11.918;2023-12-22T06:27:25;22.95;;;13.52;;
43048;SDS011;28673;44.412;11.918;2023-12-22T06:29:51;29.77;;;15.32;;
43048;SDS011;28673;44.412;11.918;2023-12-22T06:32:16;30.90;;;15.18;;
43048;SDS011;28673;44.412;11.918;2023-12-22T06:34:42;28.80;;;14.77;;
43048;SDS011;28673;44.412;11.918;2023-12-22T06:37:08;26.52;;;14.35;;
43048;SDS011;28673;44.412;11.918;2023-12-22T06:39:36;28.30;;;14.00;;
43048;SDS011;28673;44.412;11.918;2023-12-22T06:42:01;30.63;;;14.43;;
43048;SDS011;28673;44.412;11.918;2023-12-22T06:44:28;32.33;;;13.32;;
43048;SDS011;28673;44.412;11.918;2023-12-22T06:46:56;27.67;;;13.45;;
43048;SDS011;28673;44.412;11.918;2023-12-22T06:49:22;24.38;;;13.05;;
43048;SDS011;28673;44.412;11.918;2023-12-22T06:51:48;23.23;;;12.05;;
43048;SDS011;28673;44.412;11.918;2023-12-22T06:54:14;24.42;;;13.02;;
43048;SDS011;28673;44.412;11.918;2023-12-22T06:56:39;22.63;;;12.02;;
43048;SDS011;28673;44.412;11.918;2023-12-22T06:59:05;26.42;;;12.60;;
43048;SDS011;28673;44.412;11.918;2023-12-22T07:01:32;28.00;;;12.55;;
43048;SDS011;28673;44.412;11.918;2023-12-22T07:03:59;21.35;;;11.15;;
43048;SDS011;28673;44.412;11.918;2023-12-22T07:06:26;21.58;;;8.82;;
43048;SDS011;28673;44.412;11.918;2023-12-22T07:08:57;19.52;;;9.00;;
43048;SDS011;28673;44.412;11.918;2023-12-22T07:11:22;14.98;;;8.55;;
43048;SDS011;28673;44.412;11.918;2023-12-22T07:13:48;17.98;;;8.32;;
43048;SDS011;28673;44.412;11.918;2023-12-22T07:16:14;23.55;;;10.63;;
43048;SDS011;28673;44.412;11.918;2023-12-22T07:18:40;18.98;;;8.85;;
43048;SDS011;28673;44.412;11.918;2023-12-22T07:21:06;24.52;;;10.85;;
43048;SDS011;28673;44.412;11.918;2023-12-22T07:23:32;19.33;;;9.75;;
43048;SDS011;28673;44.412;11.918;2023-12-22T07:25:58;19.65;;;11.88;;
43048;SDS011;28673;44.412;11.918;2023-12-22T07:28:24;17.23;;;9.93;;
43048;SDS011;28673;44.412;11.918;2023-12-22T07:30:50;13.35;;;7.90;;
43048;SDS011;28673;44.412;11.918;2023-12-22T07:33:15;44.92;;;18.70;;
43048;SDS011;28673;44.412;11.918;2023-12-22T07:35:41;25.58;;;11.90;;
43048;SDS011;28673;44.412;11.918;2023-12-22T07:38:07;16.10;;;8.68;;
43048;SDS011;28673;44.412;11.918;2023-12-22T07:40:34;13.85;;;8.40;;
43048;SDS011;28673;44.412;11.918;2023-12-22T07:43:00;11.75;;;6.75;;
43048;SDS011;28673;44.412;11.918;2023-12-22T07:45:26;10.10;;;6.28;;
43048;SDS011;28673;44.412;11.918;2023-12-22T07:47:53;27.95;;;11.05;;
43048;SDS011;28673;44.412;11.918;2023-12-22T07:50:19;13.57;;;7.68;;
43048;SDS011;28673;44.412;11.918;2023-12-22T07:52:46;11.10;;;7.03;;
43048;SDS011;28673;44.412;11.918;2023-12-22T07:55:12;16.08;;;7.88;;
43048;SDS011;28673;44.412;11.918;2023-12-22T07:57:38;14.35;;;7.40;;
43048;SDS011;28673;44.412;11.918;2023-12-22T08:00:04;30.45;;;11.57;;
43048;SDS011;28673;44.412;11.918;2023-12-22T08:02:37;29.85;;;12.52;;
43048;SDS011;28673;44.412;11.918;2023-12-22T08:05:03;34.20;;;12.55;;
43048;SDS011;28673;44.412;11.918;2023-12-22T08:07:29;24.08;;;11.02;;
43048;SDS011;28673;44.412;11.918;2023-12-22T08:09:56;20.23;;;9.70;;
43048;SDS011;28673;44.412;11.918;2023-12-22T08:12:22;18.02;;;8.93;;
43048;SDS011;28673;44.412;11.918;2023-12-22T08:14:48;14.77;;;8.50;;
43048;SDS011;28673;44.412;11.918;2023-12-22T08:17:14;16.02;;;10.13;;
43048;SDS011;28673;44.412;11.918;2023-12-22T08:19:39;19.60;;;9.00;;
43048;SDS011;28673;44.412;11.918;2023-12-22T08:22:11;19.27;;;10.38;;
43048;SDS011;28673;44.412;11.918;2023-12-22T08:24:40;14.65;;;8.07;;
43048;SDS011;28673;44.412;11.918;2023-12-22T08:27:07;23.90;;;9.73;;
43048;SDS011;28673;44.412;11.918;2023-12-22T08:29:33;22.77;;;10.15;;
43048;SDS011;28673;44.412;11.918;2023-12-22T08:31:59;26.13;;;9.25;;
43048;SDS011;28673;44.412;11.918;2023-12-22T08:34:25;20.52;;;9.82;;
43048;SDS011;28673;44.412;11.918;2023-12-22T08:36:52;15.73;;;8.50;;
43048;SDS011;28673;44.412;11.918;2023-12-22T08:39:18;18.08;;;8.65;;
43048;SDS011;28673;44.412;11.918;2023-12-22T08:41:44;10.95;;;6.47;;
43048;SDS011;28673;44.412;11.918;2023-12-22T08:44:11;12.15;;;5.93;;
43048;SDS011;28673;44.412;11.918;2023-12-22T08:46:39;7.85;;;5.35;;
43048;SDS011;28673;44.412;11.918;2023-12-22T08:49:05;8.25;;;4.88;;
43048;SDS011;28673;44.412;11.918;2023-12-22T08:51:32;13.13;;;4.80;;
43048;SDS011;28673;44.412;11.918;2023-12-22T08:53:59;9.57;;;3.97;;
43048;SDS011;28673;44.412;11.918;2023-12-22T08:56:25;8.32;;;3.40;;
43048;SDS011;28673;44.412;11.918;2023-12-22T08:58:52;7.55;;;3.38;;
43048;SDS011;28673;44.412;11.918;2023-12-22T09:01:20;7.35;;;2.30;;
43048;SDS011;28673;44.412;11.918;2023-12-22T09:03:47;3.83;;;1.90;;
43048;SDS011;28673;44.412;11.918;2023-12-22T09:06:14;5.97;;;2.05;;
43048;SDS011;28673;44.412;11.918;2023-12-22T09:08:43;1.75;;;1.00;;
43048;SDS011;28673;44.412;11.918;2023-12-22T09:11:11;4.30;;;1.23;;
43048;SDS011;28673;44.412;11.918;2023-12-22T09:13:37;4.78;;;0.95;;
43048;SDS011;28673;44.412;11.918;2023-12-22T09:16:04;2.10;;;0.88;;
43048;SDS011;28673;44.412;11.918;2023-12-22T09:18:30;4.13;;;0.68;;
43048;SDS011;28673;44.412;11.918;2023-12-22T09:20:57;1.88;;;0.90;;
43048;SDS011;28673;44.412;11.918;2023-12-22T09:23:23;3.22;;;1.08;;
43048;SDS011;28673;44.412;11.918;2023-12-22T09:25:49;1.65;;;0.90;;
43048;SDS011;28673;44.412;11.918;2023-12-22T09:28:15;11.45;;;1.10;;
43048;SDS011;28673;44.412;11.918;2023-12-22T09:30:41;2.08;;;0.75;;
43048;SDS011;28673;44.412;11.918;2023-12-22T09:33:07;0.93;;;0.85;;
43048;SDS011;28673;44.412;11.918;2023-12-22T09:35:34;8.30;;;1.38;;
43048;SDS011;28673;44.412;11.918;2023-12-22T09:38:00;2.42;;;1.00;;
43048;SDS011;28673;44.412;11.918;2023-12-22T09:40:26;2.90;;;1.00;;
43048;SDS011;28673;44.412;11.918;2023-12-22T09:42:55;1.52;;;0.93;;
43048;SDS011;28673;44.412;11.918;2023-12-22T09:45:23;5.97;;;1.00;;
43048;SDS011;28673;44.412;11.918;2023-12-22T09:47:50;4.28;;;1.02;;
43048;SDS011;28673;44.412;11.918;2023-12-22T09:50:17;4.28;;;0.80;;
43048;SDS011;28673;44.412;11.918;2023-12-22T09:52:44;1.35;;;0.85;;
43048;SDS011;28673;44.412;11.918;2023-12-22T09:55:12;5.88;;;1.00;;
43048;SDS011;28673;44.412;11.918;2023-12-22T09:57:38;2.08;;;0.80;;
43048;SDS011;28673;44.412;11.918;2023-12-22T10:00:08;4.22;;;0.80;;
43048;SDS011;28673;44.412;11.918;2023-12-22T10:02:39;4.13;;;0.83;;
43048;SDS011;28673;44.412;11.918;2023-12-22T10:05:05;2.08;;;0.80;;
43048;SDS011;28673;44.412;11.918;2023-12-22T10:07:31;3.50;;;1.15;;
43048;SDS011;28673;44.412;11.918;2023-12-22T10:09:59;0.95;;;0.70;;
43048;SDS011;28673;44.412;11.918;2023-12-22T10:12:26;5.43;;;1.20;;
43048;SDS011;28673;44.412;11.918;2023-12-22T10:14:54;4.80;;;0.95;;
43048;SDS011;28673;44.412;11.918;2023-12-22T10:17:21;0.55;;;0.47;;
43048;SDS011;28673;44.412;11.918;2023-12-22T10:19:47;3.80;;;1.05;;
43048;SDS011;28673;44.412;11.918;2023-12-22T10:22:13;1.92;;;0.90;;
43048;SDS011;28673;44.412;11.918;2023-12-22T10:24:42;2.08;;;0.68;;
43048;SDS011;28673;44.412;11.918;2023-12-22T10:27:12;2.00;;;0.90;;
43048;SDS011;28673;44.412;11.918;2023-12-22T10:29:38;1.50;;;0.60;;
43048;SDS011;28673;44.412;11.918;2023-12-22T10:32:05;2.10;;;1.52;;
43048;SDS011;28673;44.412;11.918;2023-12-22T10:34:32;6.18;;;0.90;;
43048;SDS011;28673;44.412;11.918;2023-12-22T10:37:01;0.45;;;0.45;;
43048;SDS011;28673;44.412;11.918;2023-12-22T10:39:27;0.75;;;0.50;;
43048;SDS011;28673;44.412;11.918;2023-12-22T10:41:56;0.95;;;0.45;;
43048;SDS011;28673;44.412;11.918;2023-12-22T10:44:27;1.60;;;0.70;;
43048;SDS011;28673;44.412;11.918;2023-12-22T10:46:54;1.93;;;0.70;;
43048;SDS011;28673;44.412;11.918;2023-12-22T10:49:21;2.05;;;0.52;;
43048;SDS011;28673;44.412;11.918;2023-12-22T10:51:48;1.83;;;0.47;;
43048;SDS011;28673;44.412;11.918;2023-12-22T10:54:14;1.48;;;0.52;;
43048;SDS011;28673;44.412;11.918;2023-12-22T10:56:41;1.25;;;0.43;;
43048;SDS011;28673;44.412;11.918;2023-12-22T10:59:08;2.78;;;0.38;;
43048;SDS011;28673;44.412;11.918;2023-12-22T11:01:35;2.80;;;0.73;;
43048;SDS011;28673;44.412;11.918;2023-12-22T11:04:08;2.88;;;0.52;;
43048;SDS011;28673;44.412;11.918;2023-12-22T11:06:39;3.95;;;0.50;;
43048;SDS011;28673;44.412;11.918;2023-12-22T11:09:08;0.95;;;0.73;;
43048;SDS011;28673;44.412;11.918;2023-12-22T11:11:36;0.88;;;0.47;;
43048;SDS011;28673;44.412;11.918;2023-12-22T11:14:03;0.75;;;0.50;;
43048;SDS011;28673;44.412;11.918;2023-12-22T11:16:31;0.40;;;0.30;;
43048;SDS011;28673;44.412;11.918;2023-12-22T11:18:59;2.38;;;0.60;;
43048;SDS011;28673;44.412;11.918;2023-12-22T11:21:25;0.75;;;0.40;;
43048;SDS011;28673;44.412;11.918;2023-12-22T11:23:52;1.75;;;0.52;;
43048;SDS011;28673;44.412;11.918;2023-12-22T11:26:19;2.05;;;0.30;;
43048;SDS011;28673;44.412;11.918;2023-12-22T11:28:46;5.25;;;0.50;;
43048;SDS011;28673;44.412;11.918;2023-12-22T11:31:14;2.47;;;0.40;;
43048;SDS011;28673;44.412;11.918;2023-12-22T11:33:49;0.88;;;0.50;;
43048;SDS011;28673;44.412;11.918;2023-12-22T11:36:16;1.30;;;0.40;;
43048;SDS011;28673;44.412;11.918;2023-12-22T11:38:44;2.75;;;0.45;;
43048;SDS011;28673;44.412;11.918;2023-12-22T11:41:12;1.83;;;0.70;;
43048;SDS011;28673;44.412;11.918;2023-12-22T11:43:44;1.90;;;0.40;;
43048;SDS011;28673;44.412;11.918;2023-12-22T11:46:12;1.85;;;0.47;;
43048;SDS011;28673;44.412;11.918;2023-12-22T11:48:37;5.03;;;0.55;;
43048;SDS011;28673;44.412;11.918;2023-12-22T11:51:12;5.18;;;0.73;;
43048;SDS011;28673;44.412;11.918;2023-12-22T11:53:39;5.25;;;0.82;;
43048;SDS011;28673;44.412;11.918;2023-12-22T11:56:06;1.02;;;0.43;;
43048;SDS011;28673;44.412;11.918;2023-12-22T12:01:11;3.97;;;1.75;;
43048;SDS011;28673;44.412;11.918;2023-12-22T12:03:41;4.30;;;0.90;;
43048;SDS011;28673;44.412;11.918;2023-12-22T12:06:14;0.52;;;0.47;;
43048;SDS011;28673;44.412;11.918;2023-12-22T12:08:54;4.50;;;0.50;;
43048;SDS011;28673;44.412;11.918;2023-12-22T12:11:21;5.47;;;1.02;;
43048;SDS011;28673;44.412;11.918;2023-12-22T12:13:48;4.43;;;0.47;;
43048;SDS011;28673;44.412;11.918;2023-12-22T12:16:18;0.40;;;0.30;;
43048;SDS011;28673;44.412;11.918;2023-12-22T12:18:49;6.80;;;0.63;;
43048;SDS011;28673;44.412;11.918;2023-12-22T12:21:17;1.40;;;0.43;;
43048;SDS011;28673;44.412;11.918;2023-12-22T12:23:43;2.42;;;0.77;;
43048;SDS011;28673;44.412;11.918;2023-12-22T12:26:09;1.58;;;0.40;;
43048;SDS011;28673;44.412;11.918;2023-12-22T12:28:37;0.52;;;0.30;;
43048;SDS011;28673;44.412;11.918;2023-12-22T12:31:04;1.75;;;0.50;;
43048;SDS011;28673;44.412;11.918;2023-12-22T12:33:31;4.80;;;0.75;;
43048;SDS011;28673;44.412;11.918;2023-12-22T12:35:58;2.10;;;0.55;;
43048;SDS011;28673;44.412;11.918;2023-12-22T12:38:45;0.82;;;0.50;;
43048;SDS011;28673;44.412;11.918;2023-12-22T12:41:30;3.10;;;0.50;;
43048;SDS011;28673;44.412;11.918;2023-12-22T12:44:00;0.60;;;0.30;;
43048;SDS011;28673;44.412;11.918;2023-12-22T12:46:37;3.28;;;0.65;;
43048;SDS011;28673;44.412;11.918;2023-12-22T12:49:07;0.40;;;0.40;;
43048;SDS011;28673;44.412;11.918;2023-12-22T12:51:37;5.00;;;1.10;;
43048;SDS011;28673;44.412;11.918;2023-12-22T12:54:04;2.15;;;0.32;;
43048;SDS011;28673;44.412;11.918;2023-12-22T12:56:40;4.95;;;0.75;;
43048;SDS011;28673;44.412;11.918;2023-12-22T12:59:11;0.32;;;0.32;;
43048;SDS011;28673;44.412;11.918;2023-12-22T13:01:41;3.00;;;0.30;;
43048;SDS011;28673;44.412;11.918;2023-12-22T13:04:08;3.03;;;0.60;;
43048;SDS011;28673;44.412;11.918;2023-12-22T13:06:34;1.05;;;0.47;;
43048;SDS011;28673;44.412;11.918;2023-12-22T13:09:00;3.80;;;0.43;;
43048;SDS011;28673;44.412;11.918;2023-12-22T13:11:27;0.93;;;0.32;;
43048;SDS011;28673;44.412;11.918;2023-12-22T13:13:56;0.70;;;0.50;;
43048;SDS011;28673;44.412;11.918;2023-12-22T13:16:23;6.88;;;0.70;;
43048;SDS011;28673;44.412;11.918;2023-12-22T13:18:58;1.67;;;0.68;;
43048;SDS011;28673;44.412;11.918;2023-12-22T13:21:26;0.73;;;0.30;;
43048;SDS011;28673;44.412;11.918;2023-12-22T13:24:13;3.03;;;0.35;;
43048;SDS011;28673;44.412;11.918;2023-12-22T13:26:43;1.08;;;0.47;;
43048;SDS011;28673;44.412;11.918;2023-12-22T13:29:10;2.40;;;0.30;;
43048;SDS011;28673;44.412;11.918;2023-12-22T13:31:37;0.20;;;0.20;;
43048;SDS011;28673;44.412;11.918;2023-12-22T13:34:10;1.17;;;0.50;;
43048;SDS011;28673;44.412;11.918;2023-12-22T13:36:37;4.13;;;0.70;;
43048;SDS011;28673;44.412;11.918;2023-12-22T13:39:07;0.80;;;0.50;;
43048;SDS011;28673;44.412;11.918;2023-12-22T13:41:34;1.67;;;1.55;;
43048;SDS011;28673;44.412;11.918;2023-12-22T13:44:04;0.73;;;0.20;;
43048;SDS011;28673;44.412;11.918;2023-12-22T13:46:30;1.70;;;0.47;;
43048;SDS011;28673;44.412;11.918;2023-12-22T13:48:57;1.15;;;0.50;;
43048;SDS011;28673;44.412;11.918;2023-12-22T13:51:24;3.40;;;0.40;;
43048;SDS011;28673;44.412;11.918;2023-12-22T13:53:50;3.60;;;0.75;;
43048;SDS011;28673;44.412;11.918;2023-12-22T13:56:16;1.83;;;0.60;;
43048;SDS011;28673;44.412;11.918;2023-12-22T13:58:47;0.68;;;0.45;;
43048;SDS011;28673;44.412;11.918;2023-12-22T14:01:14;4.88;;;0.63;;
43048;SDS011;28673;44.412;11.918;2023-12-22T14:03:41;0.35;;;0.30;;
43048;SDS011;28673;44.412;11.918;2023-12-22T14:06:07;0.93;;;0.40;;
43048;SDS011;28673;44.412;11.918;2023-12-22T14:08:34;0.20;;;0.20;;
43048;SDS011;28673;44.412;11.918;2023-12-22T14:11:01;0.30;;;0.30;;
43048;SDS011;28673;44.412;11.918;2023-12-22T14:13:27;0.28;;;0.28;;
43048;SDS011;28673;44.412;11.918;2023-12-22T14:15:53;3.20;;;0.40;;
43048;SDS011;28673;44.412;11.918;2023-12-22T14:18:18;0.52;;;0.47;;
43048;SDS011;28673;44.412;11.918;2023-12-22T14:20:44;0.40;;;0.32;;